Check out our new PWSWeather beta!
PWSweather.com
Personal Weather Stations
Station Observations
WD4JKH
Forsyth, GA 31029

Forsyth, GA 31029

Lat: 33.033225, Lon: -83.927995

Elevation: 709

Station Type: Davis Vantage VUE

High Low Average
Temperature 66.6°F19.2°C 53.1°F11.7°C 59.2°F15.1°C
Dew Point 62.5°F16.9°C 51.0°F10.6°C 57.1°F13.9°C
Winds 6.9 mph 11.1 kmh Calm Calm 1.0 mph SE1.6 kmh SE
Wind Gusts 21.0 mph33.8 kmh -- 4.0 mph6.4 kmh
Humidity 97% 85% 93%
Pressure 30.29 in1025.7 mb 30.07 in1018.3 mb -
Precipitation 0.33 in8.4 mm - -
Hour Temp Dew Point Humidity Winds Wind Gusts Pressure Precip Precip Rate Daily Precip Total
12:00 AM 55.3°F12.9°C 51.5°F10.8°C 87% 1.6 mph NE2.6 kmh NE 4.0 mph6.4 kmh 30.29 in1025.7 mb 0.00 in0.0 mm 0.00 in0.0 mm 0.00 in0.0 mm
12:05 AM 55.3°F12.9°C 51.5°F10.8°C 87% 2.1 mph NE3.4 kmh NE 5.0 mph8.0 kmh 30.28 in1025.4 mb 0.00 in0.0 mm 0.00 in0.0 mm 0.00 in0.0 mm
12:10 AM 55.4°F13.0°C 51.6°F10.9°C 87% 2.3 mph ENE3.7 kmh ENE 5.0 mph8.0 kmh 30.28 in1025.4 mb 0.00 in0.0 mm 0.00 in0.0 mm 0.00 in0.0 mm
12:15 AM 55.5°F13.1°C 51.7°F10.9°C 87% 1.8 mph ENE2.9 kmh ENE 5.0 mph8.0 kmh 30.28 in1025.4 mb 0.00 in0.0 mm 0.00 in0.0 mm 0.00 in0.0 mm
12:20 AM 55.4°F13.0°C 51.6°F10.9°C 87% 2.3 mph E3.7 kmh E 5.0 mph8.0 kmh 30.27 in1025.1 mb 0.00 in0.0 mm 0.00 in0.0 mm 0.00 in0.0 mm
12:25 AM 55.1°F12.8°C 51.3°F10.7°C 87% 1.8 mph E2.9 kmh E 4.0 mph6.4 kmh 30.27 in1025.1 mb 0.00 in0.0 mm 0.00 in0.0 mm 0.00 in0.0 mm
12:30 AM 55.0°F12.8°C 51.5°F10.8°C 88% 1.9 mph E3.1 kmh E 5.0 mph8.0 kmh 30.27 in1025.1 mb 0.00 in0.0 mm 0.00 in0.0 mm 0.00 in0.0 mm
12:35 AM 54.8°F12.7°C 51.3°F10.7°C 88% 1.1 mph E1.8 kmh E 5.0 mph8.0 kmh 30.27 in1025.1 mb 0.00 in0.0 mm 0.00 in0.0 mm 0.00 in0.0 mm
12:40 AM 54.9°F12.7°C 51.4°F10.8°C 88% 1.4 mph E2.3 kmh E 5.0 mph8.0 kmh 30.27 in1025.1 mb 0.00 in0.0 mm 0.00 in0.0 mm 0.00 in0.0 mm
12:45 AM 54.9°F12.7°C 51.4°F10.8°C 88% 1.8 mph E2.9 kmh E 4.0 mph6.4 kmh 30.27 in1025.1 mb 0.00 in0.0 mm 0.00 in0.0 mm 0.00 in0.0 mm
12:50 AM 54.8°F12.7°C 51.6°F10.9°C 89% 1.6 mph ENE2.6 kmh ENE 4.0 mph6.4 kmh 30.27 in1025.1 mb 0.00 in0.0 mm 0.00 in0.0 mm 0.00 in0.0 mm
12:55 AM 54.9°F12.7°C 51.7°F10.9°C 89% 2.8 mph NE4.5 kmh NE 4.0 mph6.4 kmh 30.27 in1025.1 mb 0.00 in0.0 mm 0.00 in0.0 mm 0.00 in0.0 mm
01:00 AM 54.9°F12.7°C 51.7°F10.9°C 89% 2.5 mph NE4.0 kmh NE 4.0 mph6.4 kmh 30.27 in1025.1 mb 0.00 in0.0 mm 0.00 in0.0 mm 0.00 in0.0 mm
01:05 AM 54.8°F12.7°C 51.6°F10.9°C 89% 1.8 mph ENE2.9 kmh ENE 4.0 mph6.4 kmh 30.27 in1025.1 mb 0.00 in0.0 mm 0.00 in0.0 mm 0.00 in0.0 mm
01:10 AM 54.8°F12.7°C 51.6°F10.9°C 89% 2.1 mph E3.4 kmh E 5.0 mph8.0 kmh 30.27 in1025.1 mb 0.00 in0.0 mm 0.00 in0.0 mm 0.00 in0.0 mm
01:15 AM 54.8°F12.7°C 51.6°F10.9°C 89% 2.0 mph ENE3.2 kmh ENE 5.0 mph8.0 kmh 30.27 in1025.1 mb 0.00 in0.0 mm 0.00 in0.0 mm 0.00 in0.0 mm
01:20 AM 54.8°F12.7°C 51.6°F10.9°C 89% 1.8 mph NE2.9 kmh NE 5.0 mph8.0 kmh 30.27 in1025.1 mb 0.00 in0.0 mm 0.00 in0.0 mm 0.00 in0.0 mm
01:25 AM 54.9°F12.7°C 51.7°F10.9°C 89% 1.5 mph NE2.4 kmh NE 5.0 mph8.0 kmh 30.27 in1025.1 mb 0.00 in0.0 mm 0.00 in0.0 mm 0.00 in0.0 mm
01:30 AM 54.8°F12.7°C 51.6°F10.9°C 89% 2.2 mph NE3.5 kmh NE 5.0 mph8.0 kmh 30.27 in1025.1 mb 0.00 in0.0 mm 0.00 in0.0 mm 0.00 in0.0 mm
01:35 AM 54.5°F12.5°C 51.3°F10.7°C 89% 1.8 mph NNE2.9 kmh NNE 5.0 mph8.0 kmh 30.27 in1025.1 mb 0.00 in0.0 mm 0.00 in0.0 mm 0.00 in0.0 mm
01:40 AM 54.3°F12.4°C 51.4°F10.8°C 90% 2.6 mph NE4.2 kmh NE 5.0 mph8.0 kmh 30.27 in1025.1 mb 0.00 in0.0 mm 0.00 in0.0 mm 0.00 in0.0 mm
01:45 AM 54.2°F12.3°C 51.3°F10.7°C 90% 2.1 mph NE3.4 kmh NE 3.0 mph4.8 kmh 30.26 in1024.7 mb 0.00 in0.0 mm 0.00 in0.0 mm 0.00 in0.0 mm
01:50 AM 54.1°F12.3°C 51.2°F10.7°C 90% 1.6 mph NE2.6 kmh NE 4.0 mph6.4 kmh 30.26 in1024.7 mb 0.00 in0.0 mm 0.00 in0.0 mm 0.00 in0.0 mm
01:55 AM 54.1°F12.3°C 51.2°F10.7°C 90% 2.0 mph ENE3.2 kmh ENE 4.0 mph6.4 kmh 30.26 in1024.7 mb 0.00 in0.0 mm 0.00 in0.0 mm 0.00 in0.0 mm
02:00 AM 54.1°F12.3°C 51.5°F10.8°C 91% 1.8 mph NE2.9 kmh NE 4.0 mph6.4 kmh 30.27 in1025.1 mb 0.00 in0.0 mm 0.00 in0.0 mm 0.00 in0.0 mm
02:05 AM 54.1°F12.3°C 51.5°F10.8°C 91% 1.2 mph NE1.9 kmh NE 4.0 mph6.4 kmh 30.26 in1024.7 mb 0.00 in0.0 mm 0.00 in0.0 mm 0.00 in0.0 mm
02:10 AM 54.2°F12.3°C 51.6°F10.9°C 91% 1.6 mph NE2.6 kmh NE 3.0 mph4.8 kmh 30.26 in1024.7 mb 0.00 in0.0 mm 0.00 in0.0 mm 0.00 in0.0 mm
02:15 AM 54.1°F12.3°C 51.5°F10.8°C 91% 1.3 mph NE2.1 kmh NE 3.0 mph4.8 kmh 30.26 in1024.7 mb 0.00 in0.0 mm 0.00 in0.0 mm 0.00 in0.0 mm
02:20 AM 54.1°F12.3°C 51.5°F10.8°C 91% 1.5 mph E2.4 kmh E 3.0 mph4.8 kmh 30.26 in1024.7 mb 0.00 in0.0 mm 0.00 in0.0 mm 0.00 in0.0 mm
02:25 AM 54.1°F12.3°C 51.5°F10.8°C 91% 1.6 mph E2.6 kmh E 3.0 mph4.8 kmh 30.26 in1024.7 mb 0.00 in0.0 mm 0.00 in0.0 mm 0.00 in0.0 mm
02:30 AM 54.1°F12.3°C 51.5°F10.8°C 91% 1.3 mph ENE2.1 kmh ENE 3.0 mph4.8 kmh 30.26 in1024.7 mb 0.00 in0.0 mm 0.00 in0.0 mm 0.00 in0.0 mm
02:35 AM 54.1°F12.3°C 51.5°F10.8°C 91% 1.4 mph E2.3 kmh E 4.0 mph6.4 kmh 30.26 in1024.7 mb 0.00 in0.0 mm 0.00 in0.0 mm 0.00 in0.0 mm
02:40 AM 54.1°F12.3°C 51.5°F10.8°C 91% 1.3 mph ENE2.1 kmh ENE 4.0 mph6.4 kmh 30.26 in1024.7 mb 0.00 in0.0 mm 0.00 in0.0 mm 0.00 in0.0 mm
02:45 AM 54.1°F12.3°C 51.5°F10.8°C 91% 1.4 mph ENE2.3 kmh ENE 4.0 mph6.4 kmh 30.26 in1024.7 mb 0.00 in0.0 mm 0.00 in0.0 mm 0.00 in0.0 mm
02:49 AM 54.2°F12.3°C 51.6°F10.9°C 91% 1.9 mph NE3.1 kmh NE 4.0 mph6.4 kmh 30.26 in1024.7 mb 0.00 in0.0 mm 0.00 in0.0 mm 0.00 in0.0 mm
02:54 AM 54.2°F12.3°C 51.6°F10.9°C 91% 1.6 mph NE2.6 kmh NE 4.0 mph6.4 kmh 30.26 in1024.7 mb 0.00 in0.0 mm 0.00 in0.0 mm 0.00 in0.0 mm
02:59 AM 54.0°F12.2°C 51.4°F10.8°C 91% 1.0 mph NE1.6 kmh NE 4.0 mph6.4 kmh 30.25 in1024.4 mb 0.00 in0.0 mm 0.00 in0.0 mm 0.00 in0.0 mm
03:04 AM 53.9°F12.2°C 51.6°F10.9°C 92% 1.3 mph NE2.1 kmh NE 4.0 mph6.4 kmh 30.25 in1024.4 mb 0.00 in0.0 mm 0.00 in0.0 mm 0.00 in0.0 mm
03:09 AM 53.9°F12.2°C 51.6°F10.9°C 92% 1.1 mph NE1.8 kmh NE 3.0 mph4.8 kmh 30.25 in1024.4 mb 0.00 in0.0 mm 0.00 in0.0 mm 0.00 in0.0 mm
03:14 AM 53.9°F12.2°C 51.6°F10.9°C 92% 1.0 mph NE1.6 kmh NE 2.0 mph3.2 kmh 30.25 in1024.4 mb 0.00 in0.0 mm 0.00 in0.0 mm 0.00 in0.0 mm
03:19 AM 53.8°F12.1°C 51.5°F10.8°C 92% 1.1 mph NE1.8 kmh NE 2.0 mph3.2 kmh 30.25 in1024.4 mb 0.00 in0.0 mm 0.00 in0.0 mm 0.00 in0.0 mm
03:24 AM 53.7°F12.1°C 51.4°F10.8°C 92% 1.2 mph NE1.9 kmh NE 2.0 mph3.2 kmh 30.26 in1024.7 mb 0.00 in0.0 mm 0.00 in0.0 mm 0.00 in0.0 mm
03:29 AM 53.7°F12.1°C 51.4°F10.8°C 92% 1.9 mph NE3.1 kmh NE 3.0 mph4.8 kmh 30.25 in1024.4 mb 0.00 in0.0 mm 0.00 in0.0 mm 0.00 in0.0 mm
03:34 AM 53.7°F12.1°C 51.4°F10.8°C 92% 1.0 mph NE1.6 kmh NE 3.0 mph4.8 kmh 30.26 in1024.7 mb 0.00 in0.0 mm 0.00 in0.0 mm 0.00 in0.0 mm
03:39 AM 53.7°F12.1°C 51.4°F10.8°C 92% 1.5 mph NE2.4 kmh NE 3.0 mph4.8 kmh 30.25 in1024.4 mb 0.00 in0.0 mm 0.00 in0.0 mm 0.00 in0.0 mm
03:44 AM 53.5°F11.9°C 51.2°F10.7°C 92% 1.4 mph NE2.3 kmh NE 3.0 mph4.8 kmh 30.25 in1024.4 mb 0.00 in0.0 mm 0.00 in0.0 mm 0.00 in0.0 mm
03:49 AM 53.3°F11.8°C 51.0°F10.6°C 92% 1.1 mph NE1.8 kmh NE 3.0 mph4.8 kmh 30.25 in1024.4 mb 0.00 in0.0 mm 0.00 in0.0 mm 0.00 in0.0 mm
03:54 AM 53.3°F11.8°C 51.3°F10.7°C 93% 1.6 mph NNE2.6 kmh NNE 3.0 mph4.8 kmh 30.25 in1024.4 mb 0.00 in0.0 mm 0.00 in0.0 mm 0.00 in0.0 mm
03:59 AM 53.2°F11.8°C 51.2°F10.7°C 93% 2.0 mph NE3.2 kmh NE 4.0 mph6.4 kmh 30.25 in1024.4 mb 0.00 in0.0 mm 0.00 in0.0 mm 0.00 in0.0 mm
04:04 AM 53.2°F11.8°C 51.2°F10.7°C 93% 1.6 mph NE2.6 kmh NE 4.0 mph6.4 kmh 30.26 in1024.7 mb 0.00 in0.0 mm 0.00 in0.0 mm 0.00 in0.0 mm
04:09 AM 53.1°F11.7°C 51.1°F10.6°C 93% 1.0 mph NE1.6 kmh NE 4.0 mph6.4 kmh 30.25 in1024.4 mb 0.00 in0.0 mm 0.00 in0.0 mm 0.00 in0.0 mm
04:14 AM 53.1°F11.7°C 51.1°F10.6°C 93% 1.4 mph NE2.3 kmh NE 4.0 mph6.4 kmh 30.25 in1024.4 mb 0.00 in0.0 mm 0.00 in0.0 mm 0.00 in0.0 mm
04:19 AM 53.2°F11.8°C 51.2°F10.7°C 93% 1.4 mph NE2.3 kmh NE 3.0 mph4.8 kmh 30.26 in1024.7 mb 0.00 in0.0 mm 0.00 in0.0 mm 0.00 in0.0 mm
04:24 AM 53.3°F11.8°C 51.3°F10.7°C 93% 1.1 mph NE1.8 kmh NE 3.0 mph4.8 kmh 30.26 in1024.7 mb 0.00 in0.0 mm 0.00 in0.0 mm 0.00 in0.0 mm
04:29 AM 53.4°F11.9°C 51.4°F10.8°C 93% 1.3 mph NE2.1 kmh NE 3.0 mph4.8 kmh 30.26 in1024.7 mb 0.00 in0.0 mm 0.00 in0.0 mm 0.00 in0.0 mm
04:34 AM 53.5°F11.9°C 51.5°F10.8°C 93% 1.3 mph NNE2.1 kmh NNE 3.0 mph4.8 kmh 30.26 in1024.7 mb 0.00 in0.0 mm 0.00 in0.0 mm 0.00 in0.0 mm
04:39 AM 53.6°F12.0°C 51.6°F10.9°C 93% 1.5 mph NE2.4 kmh NE 3.0 mph4.8 kmh 30.26 in1024.7 mb 0.00 in0.0 mm 0.00 in0.0 mm 0.00 in0.0 mm
04:44 AM 53.8°F12.1°C 51.8°F11.0°C 93% 1.0 mph NE1.6 kmh NE 3.0 mph4.8 kmh 30.25 in1024.4 mb 0.00 in0.0 mm 0.00 in0.0 mm 0.00 in0.0 mm
04:49 AM 53.9°F12.2°C 51.9°F11.1°C 93% 2.1 mph NE3.4 kmh NE 4.0 mph6.4 kmh 30.25 in1024.4 mb 0.00 in0.0 mm 0.00 in0.0 mm 0.00 in0.0 mm
04:54 AM 54.0°F12.2°C 52.0°F11.1°C 93% 1.1 mph NE1.8 kmh NE 4.0 mph6.4 kmh 30.26 in1024.7 mb 0.00 in0.0 mm 0.00 in0.0 mm 0.00 in0.0 mm
04:59 AM 54.1°F12.3°C 52.1°F11.2°C 93% 1.5 mph NE2.4 kmh NE 4.0 mph6.4 kmh 30.26 in1024.7 mb 0.00 in0.0 mm 0.00 in0.0 mm 0.00 in0.0 mm
05:04 AM 54.2°F12.3°C 51.9°F11.1°C 92% 1.3 mph NE2.1 kmh NE 4.0 mph6.4 kmh 30.25 in1024.4 mb 0.00 in0.0 mm 0.00 in0.0 mm 0.00 in0.0 mm
05:09 AM 54.2°F12.3°C 51.9°F11.1°C 92% 1.3 mph NE2.1 kmh NE 4.0 mph6.4 kmh 30.25 in1024.4 mb 0.00 in0.0 mm 0.00 in0.0 mm 0.00 in0.0 mm
05:14 AM 54.2°F12.3°C 51.9°F11.1°C 92% 1.3 mph NE2.1 kmh NE 4.0 mph6.4 kmh 30.25 in1024.4 mb 0.00 in0.0 mm 0.00 in0.0 mm 0.00 in0.0 mm
05:19 AM 54.2°F12.3°C 51.9°F11.1°C 92% 2.2 mph NE3.5 kmh NE 4.0 mph6.4 kmh 30.25 in1024.4 mb 0.00 in0.0 mm 0.00 in0.0 mm 0.00 in0.0 mm
05:24 AM 54.2°F12.3°C 51.9°F11.1°C 92% 1.0 mph NE1.6 kmh NE 4.0 mph6.4 kmh 30.25 in1024.4 mb 0.00 in0.0 mm 0.00 in0.0 mm 0.00 in0.0 mm
05:29 AM 54.1°F12.3°C 51.8°F11.0°C 92% 1.5 mph NE2.4 kmh NE 3.0 mph4.8 kmh 30.25 in1024.4 mb 0.00 in0.0 mm 0.00 in0.0 mm 0.00 in0.0 mm
05:34 AM 54.1°F12.3°C 51.8°F11.0°C 92% 1.4 mph NE2.3 kmh NE 3.0 mph4.8 kmh 30.25 in1024.4 mb 0.00 in0.0 mm 0.00 in0.0 mm 0.00 in0.0 mm
05:39 AM 54.0°F12.2°C 52.0°F11.1°C 93% 1.3 mph NE2.1 kmh NE 3.0 mph4.8 kmh 30.25 in1024.4 mb 0.00 in0.0 mm 0.00 in0.0 mm 0.00 in0.0 mm
05:44 AM 54.1°F12.3°C 52.1°F11.2°C 93% 2.3 mph NE3.7 kmh NE 4.0 mph6.4 kmh 30.25 in1024.4 mb 0.00 in0.0 mm 0.00 in0.0 mm 0.00 in0.0 mm
05:49 AM 54.1°F12.3°C 52.1°F11.2°C 93% 1.6 mph NE2.6 kmh NE 4.0 mph6.4 kmh 30.25 in1024.4 mb 0.00 in0.0 mm 0.00 in0.0 mm 0.00 in0.0 mm
05:54 AM 54.1°F12.3°C 52.1°F11.2°C 93% 1.6 mph NE2.6 kmh NE 4.0 mph6.4 kmh 30.25 in1024.4 mb 0.00 in0.0 mm 0.00 in0.0 mm 0.00 in0.0 mm
05:59 AM 54.1°F12.3°C 52.1°F11.2°C 93% 1.4 mph NE2.3 kmh NE 4.0 mph6.4 kmh 30.25 in1024.4 mb 0.00 in0.0 mm 0.00 in0.0 mm 0.00 in0.0 mm
06:04 AM 54.2°F12.3°C 52.2°F11.2°C 93% 2.4 mph NE3.9 kmh NE 4.0 mph6.4 kmh 30.25 in1024.4 mb 0.00 in0.0 mm 0.00 in0.0 mm 0.00 in0.0 mm
06:09 AM 54.3°F12.4°C 52.3°F11.3°C 93% 1.4 mph NE2.3 kmh NE 4.0 mph6.4 kmh 30.25 in1024.4 mb 0.00 in0.0 mm 0.00 in0.0 mm 0.00 in0.0 mm
06:14 AM 54.2°F12.3°C 52.2°F11.2°C 93% 1.8 mph NE2.9 kmh NE 4.0 mph6.4 kmh 30.25 in1024.4 mb 0.00 in0.0 mm 0.00 in0.0 mm 0.00 in0.0 mm
06:19 AM 54.1°F12.3°C 52.1°F11.2°C 93% 1.5 mph NE2.4 kmh NE 4.0 mph6.4 kmh 30.25 in1024.4 mb 0.00 in0.0 mm 0.00 in0.0 mm 0.00 in0.0 mm
06:24 AM 54.1°F12.3°C 52.1°F11.2°C 93% 1.8 mph NE2.9 kmh NE 4.0 mph6.4 kmh 30.25 in1024.4 mb 0.00 in0.0 mm 0.00 in0.0 mm 0.00 in0.0 mm
06:29 AM 54.0°F12.2°C 52.0°F11.1°C 93% 1.4 mph NE2.3 kmh NE 4.0 mph6.4 kmh 30.25 in1024.4 mb 0.00 in0.0 mm 0.00 in0.0 mm 0.00 in0.0 mm
06:34 AM 54.0°F12.2°C 52.0°F11.1°C 93% 1.0 mph NE1.6 kmh NE 4.0 mph6.4 kmh 30.25 in1024.4 mb 0.00 in0.0 mm 0.00 in0.0 mm 0.00 in0.0 mm
06:39 AM 53.9°F12.2°C 51.9°F11.1°C 93% Calm Calm 4.0 mph6.4 kmh 30.25 in1024.4 mb 0.00 in0.0 mm 0.00 in0.0 mm 0.00 in0.0 mm
06:44 AM 53.9°F12.2°C 52.2°F11.2°C 94% 1.7 mph NE2.7 kmh NE 3.0 mph4.8 kmh 30.25 in1024.4 mb 0.00 in0.0 mm 0.00 in0.0 mm 0.00 in0.0 mm
06:49 AM 53.9°F12.2°C 52.2°F11.2°C 94% 1.8 mph NE2.9 kmh NE 3.0 mph4.8 kmh 30.25 in1024.4 mb 0.00 in0.0 mm 0.00 in0.0 mm 0.00 in0.0 mm
06:54 AM 53.8°F12.1°C 52.1°F11.2°C 94% 1.0 mph NE1.6 kmh NE 3.0 mph4.8 kmh 30.25 in1024.4 mb 0.00 in0.0 mm 0.00 in0.0 mm 0.00 in0.0 mm
06:59 AM 53.8°F12.1°C 52.1°F11.2°C 94% Calm Calm 3.0 mph4.8 kmh 30.25 in1024.4 mb 0.00 in0.0 mm 0.00 in0.0 mm 0.00 in0.0 mm
07:04 AM 53.8°F12.1°C 52.1°F11.2°C 94% 1.0 mph NE1.6 kmh NE 3.0 mph4.8 kmh 30.25 in1024.4 mb 0.00 in0.0 mm 0.00 in0.0 mm 0.00 in0.0 mm
07:09 AM 53.8°F12.1°C 52.1°F11.2°C 94% 1.0 mph NE1.6 kmh NE 2.0 mph3.2 kmh 30.26 in1024.7 mb 0.00 in0.0 mm 0.00 in0.0 mm 0.00 in0.0 mm
07:14 AM 53.9°F12.2°C 52.2°F11.2°C 94% 1.0 mph ENE1.6 kmh ENE 2.0 mph3.2 kmh 30.26 in1024.7 mb 0.00 in0.0 mm 0.00 in0.0 mm 0.00 in0.0 mm
07:19 AM 54.0°F12.2°C 52.3°F11.3°C 94% 1.0 mph ENE1.6 kmh ENE 2.0 mph3.2 kmh 30.25 in1024.4 mb 0.00 in0.0 mm 0.00 in0.0 mm 0.00 in0.0 mm
07:24 AM 54.2°F12.3°C 52.5°F11.4°C 94% 1.0 mph E1.6 kmh E 3.0 mph4.8 kmh 30.26 in1024.7 mb 0.00 in0.0 mm 0.00 in0.0 mm 0.00 in0.0 mm
07:29 AM 54.4°F12.4°C 52.7°F11.5°C 94% 1.0 mph E1.6 kmh E 3.0 mph4.8 kmh 30.26 in1024.7 mb 0.00 in0.0 mm 0.00 in0.0 mm 0.00 in0.0 mm
07:34 AM 54.6°F12.6°C 52.9°F11.6°C 94% 1.3 mph E2.1 kmh E 5.0 mph8.0 kmh 30.26 in1024.7 mb 0.00 in0.0 mm 0.00 in0.0 mm 0.00 in0.0 mm
07:39 AM 54.8°F12.7°C 53.1°F11.7°C 94% 1.8 mph E2.9 kmh E 5.0 mph8.0 kmh 30.26 in1024.7 mb 0.00 in0.0 mm 0.00 in0.0 mm 0.00 in0.0 mm
07:44 AM 54.8°F12.7°C 53.1°F11.7°C 94% 1.6 mph E2.6 kmh E 5.0 mph8.0 kmh 30.26 in1024.7 mb 0.00 in0.0 mm 0.00 in0.0 mm 0.00 in0.0 mm
07:48 AM 54.9°F12.7°C 53.2°F11.8°C 94% 2.1 mph E3.4 kmh E 5.0 mph8.0 kmh 30.26 in1024.7 mb 0.00 in0.0 mm 0.00 in0.0 mm 0.00 in0.0 mm
07:53 AM 54.9°F12.7°C 53.5°F11.9°C 95% 2.1 mph E3.4 kmh E 4.0 mph6.4 kmh 30.26 in1024.7 mb 0.00 in0.0 mm 0.00 in0.0 mm 0.00 in0.0 mm
07:58 AM 54.9°F12.7°C 53.5°F11.9°C 95% 1.5 mph ENE2.4 kmh ENE 4.0 mph6.4 kmh 30.25 in1024.4 mb 0.00 in0.0 mm 0.00 in0.0 mm 0.00 in0.0 mm
08:03 AM 55.0°F12.8°C 53.6°F12.0°C 95% 2.9 mph NE4.7 kmh NE 4.0 mph6.4 kmh 30.25 in1024.4 mb 0.00 in0.0 mm 0.00 in0.0 mm 0.00 in0.0 mm
08:08 AM 55.1°F12.8°C 53.7°F12.1°C 95% 1.3 mph ENE2.1 kmh ENE 4.0 mph6.4 kmh 30.25 in1024.4 mb 0.00 in0.0 mm 0.00 in0.0 mm 0.00 in0.0 mm
08:13 AM 55.1°F12.8°C 54.0°F12.2°C 96% 2.2 mph ENE3.5 kmh ENE 4.0 mph6.4 kmh 30.25 in1024.4 mb 0.00 in0.0 mm 0.00 in0.0 mm 0.00 in0.0 mm
08:18 AM 55.2°F12.9°C 54.0°F12.2°C 96% 2.0 mph NE3.2 kmh NE 4.0 mph6.4 kmh 30.25 in1024.4 mb 0.00 in0.0 mm 0.00 in0.0 mm 0.00 in0.0 mm
08:23 AM 55.1°F12.8°C 53.9°F12.2°C 96% 1.0 mph NE1.6 kmh NE 4.0 mph6.4 kmh 30.25 in1024.4 mb 0.00 in0.0 mm 0.00 in0.0 mm 0.00 in0.0 mm
08:28 AM 55.0°F12.8°C 53.8°F12.1°C 96% Calm Calm 3.0 mph4.8 kmh 30.26 in1024.7 mb 0.00 in0.0 mm 0.00 in0.0 mm 0.00 in0.0 mm
08:33 AM 55.0°F12.8°C 53.8°F12.1°C 96% 1.1 mph NNE1.8 kmh NNE 3.0 mph4.8 kmh 30.26 in1024.7 mb 0.00 in0.0 mm 0.00 in0.0 mm 0.00 in0.0 mm
08:38 AM 54.9°F12.7°C 53.7°F12.1°C 96% 1.0 mph NE1.6 kmh NE 3.0 mph4.8 kmh 30.26 in1024.7 mb 0.00 in0.0 mm 0.00 in0.0 mm 0.00 in0.0 mm
08:43 AM 54.9°F12.7°C 53.7°F12.1°C 96% 1.0 mph NE1.6 kmh NE 3.0 mph4.8 kmh 30.26 in1024.7 mb 0.00 in0.0 mm 0.00 in0.0 mm 0.00 in0.0 mm
08:48 AM 54.9°F12.7°C 53.7°F12.1°C 96% 1.2 mph NE1.9 kmh NE 3.0 mph4.8 kmh 30.26 in1024.7 mb 0.00 in0.0 mm 0.00 in0.0 mm 0.00 in0.0 mm
08:53 AM 55.0°F12.8°C 53.8°F12.1°C 96% 1.2 mph NNE1.9 kmh NNE 3.0 mph4.8 kmh 30.27 in1025.1 mb 0.00 in0.0 mm 0.00 in0.0 mm 0.00 in0.0 mm
08:58 AM 55.1°F12.8°C 54.0°F12.2°C 96% 1.6 mph NE2.6 kmh NE 4.0 mph6.4 kmh 30.26 in1024.7 mb 0.00 in0.0 mm 0.00 in0.0 mm 0.00 in0.0 mm
09:03 AM 55.3°F12.9°C 54.5°F12.5°C 97% 1.6 mph NE2.6 kmh NE 4.0 mph6.4 kmh 30.26 in1024.7 mb 0.00 in0.0 mm 0.00 in0.0 mm 0.00 in0.0 mm
09:08 AM 55.5°F13.1°C 54.6°F12.6°C 97% 1.9 mph NE3.1 kmh NE 4.0 mph6.4 kmh 30.26 in1024.7 mb 0.00 in0.0 mm 0.00 in0.0 mm 0.00 in0.0 mm
09:13 AM 55.5°F13.1°C 54.6°F12.6°C 97% 3.1 mph NNE5.0 kmh NNE 5.0 mph8.0 kmh 30.26 in1024.7 mb 0.00 in0.0 mm 0.00 in0.0 mm 0.00 in0.0 mm
09:18 AM 55.6°F13.1°C 54.7°F12.6°C 97% 1.1 mph NE1.8 kmh NE 5.0 mph8.0 kmh 30.26 in1024.7 mb 0.00 in0.0 mm 0.00 in0.0 mm 0.00 in0.0 mm
09:23 AM 55.7°F13.2°C 54.8°F12.7°C 97% 2.2 mph NNE3.5 kmh NNE 5.0 mph8.0 kmh 30.26 in1024.7 mb 0.00 in0.0 mm 0.00 in0.0 mm 0.00 in0.0 mm
09:28 AM 55.9°F13.3°C 55.0°F12.8°C 97% 1.8 mph NE2.9 kmh NE 5.0 mph8.0 kmh 30.26 in1024.7 mb 0.00 in0.0 mm 0.00 in0.0 mm 0.00 in0.0 mm
09:33 AM 55.9°F13.3°C 55.0°F12.8°C 97% 2.2 mph NE3.5 kmh NE 4.0 mph6.4 kmh 30.27 in1025.1 mb 0.00 in0.0 mm 0.00 in0.0 mm 0.00 in0.0 mm
09:38 AM 56.1°F13.4°C 55.2°F12.9°C 97% 2.1 mph NE3.4 kmh NE 4.0 mph6.4 kmh 30.26 in1024.7 mb 0.00 in0.0 mm 0.00 in0.0 mm 0.00 in0.0 mm
09:43 AM 56.2°F13.4°C 55.3°F12.9°C 97% Calm Calm 4.0 mph6.4 kmh 30.26 in1024.7 mb 0.00 in0.0 mm 0.00 in0.0 mm 0.00 in0.0 mm
09:48 AM 56.4°F13.6°C 55.5°F13.1°C 97% Calm Calm 4.0 mph6.4 kmh 30.26 in1024.7 mb 0.00 in0.0 mm 0.00 in0.0 mm 0.00 in0.0 mm
09:53 AM 56.5°F13.6°C 55.6°F13.1°C 97% 1.3 mph NE2.1 kmh NE 4.0 mph6.4 kmh 30.26 in1024.7 mb 0.00 in0.0 mm 0.00 in0.0 mm 0.00 in0.0 mm
09:58 AM 56.5°F13.6°C 55.6°F13.1°C 97% 1.0 mph NE1.6 kmh NE 3.0 mph4.8 kmh 30.26 in1024.7 mb 0.00 in0.0 mm 0.00 in0.0 mm 0.00 in0.0 mm
10:03 AM 56.6°F13.7°C 55.7°F13.2°C 97% 1.5 mph E2.4 kmh E 4.0 mph6.4 kmh 30.26 in1024.7 mb 0.00 in0.0 mm 0.00 in0.0 mm 0.00 in0.0 mm
10:08 AM 56.8°F13.8°C 55.9°F13.3°C 97% 1.8 mph ENE2.9 kmh ENE 4.0 mph6.4 kmh 30.26 in1024.7 mb 0.00 in0.0 mm 0.00 in0.0 mm 0.00 in0.0 mm
10:13 AM 56.9°F13.8°C 56.0°F13.3°C 97% 1.0 mph NNE1.6 kmh NNE 4.0 mph6.4 kmh 30.26 in1024.7 mb 0.00 in0.0 mm 0.00 in0.0 mm 0.00 in0.0 mm
10:18 AM 57.1°F13.9°C 56.2°F13.4°C 97% 1.6 mph NE2.6 kmh NE 3.0 mph4.8 kmh 30.26 in1024.7 mb 0.00 in0.0 mm 0.00 in0.0 mm 0.00 in0.0 mm
10:23 AM 57.2°F14.0°C 56.3°F13.5°C 97% 1.1 mph NE1.8 kmh NE 3.0 mph4.8 kmh 30.26 in1024.7 mb 0.00 in0.0 mm 0.00 in0.0 mm 0.00 in0.0 mm
10:28 AM 57.3°F14.1°C 56.4°F13.6°C 97% 1.5 mph ENE2.4 kmh ENE 3.0 mph4.8 kmh 30.26 in1024.7 mb 0.00 in0.0 mm 0.00 in0.0 mm 0.00 in0.0 mm
10:33 AM 57.5°F14.2°C 56.7°F13.7°C 97% 1.2 mph ENE1.9 kmh ENE 3.0 mph4.8 kmh 30.26 in1024.7 mb 0.00 in0.0 mm 0.00 in0.0 mm 0.00 in0.0 mm
10:38 AM 57.7°F14.3°C 56.9°F13.8°C 97% 1.0 mph NE1.6 kmh NE 3.0 mph4.8 kmh 30.26 in1024.7 mb 0.00 in0.0 mm 0.00 in0.0 mm 0.00 in0.0 mm
10:43 AM 57.8°F14.3°C 57.0°F13.9°C 97% 1.8 mph ESE2.9 kmh ESE 3.0 mph4.8 kmh 30.26 in1024.7 mb 0.00 in0.0 mm 0.00 in0.0 mm 0.00 in0.0 mm
10:48 AM 58.1°F14.5°C 57.3°F14.1°C 97% 1.6 mph E2.6 kmh E 3.0 mph4.8 kmh 30.25 in1024.4 mb 0.00 in0.0 mm 0.00 in0.0 mm 0.00 in0.0 mm
10:53 AM 58.4°F14.7°C 57.5°F14.2°C 97% 1.9 mph SE3.1 kmh SE 5.0 mph8.0 kmh 30.25 in1024.4 mb 0.00 in0.0 mm 0.00 in0.0 mm 0.00 in0.0 mm
10:58 AM 58.4°F14.7°C 57.6°F14.2°C 97% 2.3 mph E3.7 kmh E 5.0 mph8.0 kmh 30.25 in1024.4 mb 0.00 in0.0 mm 0.00 in0.0 mm 0.00 in0.0 mm
11:03 AM 58.6°F14.8°C 57.7°F14.3°C 97% 2.6 mph E4.2 kmh E 5.0 mph8.0 kmh 30.25 in1024.4 mb 0.00 in0.0 mm 0.00 in0.0 mm 0.00 in0.0 mm
11:08 AM 58.8°F14.9°C 58.0°F14.4°C 97% 1.4 mph E2.3 kmh E 5.0 mph8.0 kmh 30.25 in1024.4 mb 0.00 in0.0 mm 0.00 in0.0 mm 0.00 in0.0 mm
11:13 AM 59.0°F15.0°C 58.1°F14.5°C 97% 2.3 mph ENE3.7 kmh ENE 6.0 mph9.7 kmh 30.24 in1024.0 mb 0.00 in0.0 mm 0.00 in0.0 mm 0.00 in0.0 mm
11:18 AM 59.3°F15.2°C 58.4°F14.7°C 97% 2.1 mph E3.4 kmh E 6.0 mph9.7 kmh 30.24 in1024.0 mb 0.00 in0.0 mm 0.00 in0.0 mm 0.00 in0.0 mm
11:23 AM 59.6°F15.3°C 58.7°F14.8°C 97% 1.7 mph E2.7 kmh E 6.0 mph9.7 kmh 30.24 in1024.0 mb 0.00 in0.0 mm 0.00 in0.0 mm 0.00 in0.0 mm
11:28 AM 60.2°F15.7°C 59.3°F15.2°C 97% 1.2 mph SE1.9 kmh SE 6.0 mph9.7 kmh 30.24 in1024.0 mb 0.00 in0.0 mm 0.00 in0.0 mm 0.00 in0.0 mm
11:33 AM 60.5°F15.8°C 59.6°F15.3°C 97% 2.1 mph ESE3.4 kmh ESE 4.0 mph6.4 kmh 30.24 in1024.0 mb 0.00 in0.0 mm 0.00 in0.0 mm 0.00 in0.0 mm
11:38 AM 60.8°F16.0°C 59.6°F15.3°C 96% 1.6 mph SSE2.6 kmh SSE 3.0 mph4.8 kmh 30.23 in1023.7 mb 0.00 in0.0 mm 0.00 in0.0 mm 0.00 in0.0 mm
11:44 AM 61.0°F16.1°C 59.6°F15.3°C 95% 1.3 mph SE2.1 kmh SE 3.0 mph4.8 kmh 30.23 in1023.7 mb 0.00 in0.0 mm 0.00 in0.0 mm 0.00 in0.0 mm
11:49 AM 61.1°F16.2°C 59.7°F15.4°C 95% Calm Calm 3.0 mph4.8 kmh 30.23 in1023.7 mb 0.00 in0.0 mm 0.00 in0.0 mm 0.00 in0.0 mm
11:53 AM 61.3°F16.3°C 59.8°F15.4°C 95% 1.0 mph ESE1.6 kmh ESE 3.0 mph4.8 kmh 30.22 in1023.4 mb 0.00 in0.0 mm 0.00 in0.0 mm 0.00 in0.0 mm
11:59 AM 61.6°F16.4°C 59.8°F15.4°C 94% 1.3 mph E2.1 kmh E 3.0 mph4.8 kmh 30.22 in1023.4 mb 0.00 in0.0 mm 0.00 in0.0 mm 0.00 in0.0 mm
12:04 PM 61.7°F16.5°C 59.9°F15.5°C 94% 2.4 mph ESE3.9 kmh ESE 3.0 mph4.8 kmh 30.22 in1023.4 mb 0.00 in0.0 mm 0.00 in0.0 mm 0.00 in0.0 mm
12:09 PM 61.7°F16.5°C 59.6°F15.3°C 93% 1.2 mph ESE1.9 kmh ESE 4.0 mph6.4 kmh 30.21 in1023.0 mb 0.00 in0.0 mm 0.00 in0.0 mm 0.00 in0.0 mm
12:14 PM 61.8°F16.6°C 59.7°F15.4°C 93% 1.0 mph E1.6 kmh E 4.0 mph6.4 kmh 30.21 in1023.0 mb 0.00 in0.0 mm 0.00 in0.0 mm 0.00 in0.0 mm
12:18 PM 62.0°F16.7°C 59.9°F15.5°C 93% Calm Calm 4.0 mph6.4 kmh 30.20 in1022.7 mb 0.00 in0.0 mm 0.00 in0.0 mm 0.00 in0.0 mm
12:24 PM 62.2°F16.8°C 60.1°F15.6°C 93% 1.4 mph ESE2.3 kmh ESE 3.0 mph4.8 kmh 30.20 in1022.7 mb 0.00 in0.0 mm 0.00 in0.0 mm 0.00 in0.0 mm
12:29 PM 62.3°F16.8°C 59.9°F15.5°C 92% 1.0 mph ENE1.6 kmh ENE 3.0 mph4.8 kmh 30.20 in1022.7 mb 0.00 in0.0 mm 0.00 in0.0 mm 0.00 in0.0 mm
12:34 PM 62.6°F17.0°C 60.5°F15.8°C 93% 1.0 mph SSE1.6 kmh SSE 3.0 mph4.8 kmh 30.20 in1022.7 mb 0.00 in0.0 mm 0.00 in0.0 mm 0.00 in0.0 mm
12:39 PM 62.8°F17.1°C 60.4°F15.8°C 92% 1.0 mph ENE1.6 kmh ENE 3.0 mph4.8 kmh 30.19 in1022.4 mb 0.00 in0.0 mm 0.00 in0.0 mm 0.00 in0.0 mm
12:44 PM 63.0°F17.2°C 60.6°F15.9°C 92% 1.0 mph SE1.6 kmh SE 3.0 mph4.8 kmh 30.19 in1022.4 mb 0.00 in0.0 mm 0.00 in0.0 mm 0.00 in0.0 mm
12:49 PM 63.4°F17.4°C 61.0°F16.1°C 92% 1.3 mph SE2.1 kmh SE 2.0 mph3.2 kmh 30.19 in1022.4 mb 0.00 in0.0 mm 0.00 in0.0 mm 0.00 in0.0 mm
12:54 PM 63.6°F17.6°C 60.9°F16.1°C 91% Calm Calm 2.0 mph3.2 kmh 30.18 in1022.0 mb 0.00 in0.0 mm 0.00 in0.0 mm 0.00 in0.0 mm
12:59 PM 63.9°F17.7°C 61.2°F16.2°C 91% Calm Calm 3.0 mph4.8 kmh 30.18 in1022.0 mb 0.00 in0.0 mm 0.00 in0.0 mm 0.00 in0.0 mm
01:04 PM 64.0°F17.8°C 61.0°F16.1°C 90% 1.0 mph SW1.6 kmh SW 3.0 mph4.8 kmh 30.18 in1022.0 mb 0.00 in0.0 mm 0.00 in0.0 mm 0.00 in0.0 mm
01:09 PM 64.2°F17.9°C 61.2°F16.2°C 90% 1.0 mph SE1.6 kmh SE 3.0 mph4.8 kmh 30.17 in1021.7 mb 0.00 in0.0 mm 0.00 in0.0 mm 0.00 in0.0 mm
01:14 PM 64.5°F18.1°C 61.5°F16.4°C 90% Calm Calm 2.0 mph3.2 kmh 30.17 in1021.7 mb 0.00 in0.0 mm 0.00 in0.0 mm 0.00 in0.0 mm
01:19 PM 64.7°F18.2°C 61.4°F16.3°C 89% 1.0 mph SE1.6 kmh SE 1.0 mph1.6 kmh 30.17 in1021.7 mb 0.00 in0.0 mm 0.00 in0.0 mm 0.00 in0.0 mm
01:24 PM 65.1°F18.4°C 61.8°F16.6°C 89% Calm Calm 1.0 mph1.6 kmh 30.17 in1021.7 mb 0.00 in0.0 mm 0.00 in0.0 mm 0.00 in0.0 mm
01:29 PM 65.5°F18.6°C 61.8°F16.6°C 88% Calm Calm 1.0 mph1.6 kmh 30.17 in1021.7 mb 0.00 in0.0 mm 0.00 in0.0 mm 0.00 in0.0 mm
01:34 PM 65.7°F18.7°C 61.7°F16.5°C 87% Calm Calm 1.0 mph1.6 kmh 30.16 in1021.3 mb 0.00 in0.0 mm 0.00 in0.0 mm 0.00 in0.0 mm
01:39 PM 65.8°F18.8°C 61.8°F16.6°C 87% Calm Calm 1.0 mph1.6 kmh 30.16 in1021.3 mb 0.00 in0.0 mm 0.00 in0.0 mm 0.00 in0.0 mm
01:44 PM 66.0°F18.9°C 61.7°F16.5°C 86% Calm Calm 1.0 mph1.6 kmh 30.16 in1021.3 mb 0.00 in0.0 mm 0.00 in0.0 mm 0.00 in0.0 mm
01:47 PM 66.1°F18.9°C 62.1°F16.7°C 87% Calm Calm 1.0 mph1.6 kmh 30.16 in1021.3 mb 0.00 in0.0 mm 0.00 in0.0 mm 0.00 in0.0 mm
01:52 PM 66.2°F19.0°C 61.9°F16.6°C 86% Calm Calm 1.0 mph1.6 kmh 30.15 in1021.0 mb 0.00 in0.0 mm 0.00 in0.0 mm 0.00 in0.0 mm
01:57 PM 66.3°F19.1°C 62.0°F16.7°C 86% Calm Calm 1.0 mph1.6 kmh 30.15 in1021.0 mb 0.00 in0.0 mm 0.00 in0.0 mm 0.00 in0.0 mm
02:02 PM 66.6°F19.2°C 62.3°F16.8°C 86% 1.0 mph SE1.6 kmh SE 1.0 mph1.6 kmh 30.15 in1021.0 mb 0.00 in0.0 mm 0.00 in0.0 mm 0.00 in0.0 mm
02:07 PM 66.4°F19.1°C 61.8°F16.6°C 85% 1.0 mph W1.6 kmh W 1.0 mph1.6 kmh 30.14 in1020.7 mb 0.00 in0.0 mm 0.00 in0.0 mm 0.00 in0.0 mm
02:12 PM 66.3°F19.1°C 62.3°F16.8°C 87% Calm Calm 1.0 mph1.6 kmh 30.14 in1020.7 mb 0.00 in0.0 mm 0.00 in0.0 mm 0.00 in0.0 mm
02:17 PM 66.3°F19.1°C 62.0°F16.7°C 86% Calm Calm 1.0 mph1.6 kmh 30.14 in1020.7 mb 0.00 in0.0 mm 0.00 in0.0 mm 0.00 in0.0 mm
02:23 PM 66.2°F19.0°C 61.9°F16.6°C 86% 1.0 mph SSE1.6 kmh SSE 1.0 mph1.6 kmh 30.14 in1020.7 mb 0.00 in0.0 mm 0.00 in0.0 mm 0.00 in0.0 mm
02:28 PM 65.9°F18.8°C 61.9°F16.6°C 87% Calm Calm 1.0 mph1.6 kmh 30.14 in1020.7 mb 0.00 in0.0 mm 0.00 in0.0 mm 0.00 in0.0 mm
02:33 PM 65.8°F18.8°C 62.1°F16.7°C 88% Calm Calm 1.0 mph1.6 kmh 30.14 in1020.7 mb 0.00 in0.0 mm 0.00 in0.0 mm 0.00 in0.0 mm
02:38 PM 65.7°F18.7°C 61.7°F16.5°C 87% 1.5 mph SW2.4 kmh SW 2.0 mph3.2 kmh 30.13 in1020.3 mb 0.00 in0.0 mm 0.00 in0.0 mm 0.00 in0.0 mm
02:43 PM 65.4°F18.6°C 61.7°F16.5°C 88% Calm Calm 2.0 mph3.2 kmh 30.13 in1020.3 mb 0.00 in0.0 mm 0.00 in0.0 mm 0.00 in0.0 mm
02:48 PM 65.4°F18.6°C 61.7°F16.5°C 88% Calm Calm 2.0 mph3.2 kmh 30.13 in1020.3 mb 0.00 in0.0 mm 0.00 in0.0 mm 0.00 in0.0 mm
02:53 PM 65.5°F18.6°C 62.2°F16.8°C 89% Calm Calm 2.0 mph3.2 kmh 30.13 in1020.3 mb 0.00 in0.0 mm 0.00 in0.0 mm 0.00 in0.0 mm
02:58 PM 65.6°F18.7°C 62.3°F16.8°C 89% Calm Calm 1.0 mph1.6 kmh 30.13 in1020.3 mb 0.00 in0.0 mm 0.00 in0.0 mm 0.00 in0.0 mm
03:03 PM 65.6°F18.7°C 61.9°F16.6°C 88% Calm Calm 1.0 mph1.6 kmh 30.13 in1020.3 mb 0.00 in0.0 mm 0.00 in0.0 mm 0.00 in0.0 mm
03:08 PM 65.5°F18.6°C 61.8°F16.6°C 88% 1.4 mph ESE2.3 kmh ESE 2.0 mph3.2 kmh 30.13 in1020.3 mb 0.00 in0.0 mm 0.00 in0.0 mm 0.00 in0.0 mm
03:13 PM 65.4°F18.6°C 62.1°F16.7°C 89% Calm Calm 2.0 mph3.2 kmh 30.12 in1020.0 mb 0.00 in0.0 mm 0.00 in0.0 mm 0.00 in0.0 mm
03:18 PM 65.5°F18.6°C 62.2°F16.8°C 89% 1.0 mph SE1.6 kmh SE 2.0 mph3.2 kmh 30.12 in1020.0 mb 0.00 in0.0 mm 0.00 in0.0 mm 0.00 in0.0 mm
03:23 PM 65.4°F18.6°C 62.1°F16.7°C 89% Calm Calm 2.0 mph3.2 kmh 30.12 in1020.0 mb 0.00 in0.0 mm 0.00 in0.0 mm 0.00 in0.0 mm
03:28 PM 65.5°F18.6°C 62.2°F16.8°C 89% Calm Calm 1.0 mph1.6 kmh 30.12 in1020.0 mb 0.00 in0.0 mm 0.00 in0.0 mm 0.00 in0.0 mm
03:33 PM 65.4°F18.6°C 62.1°F16.7°C 89% Calm Calm 1.0 mph1.6 kmh 30.12 in1020.0 mb 0.00 in0.0 mm 0.00 in0.0 mm 0.00 in0.0 mm
03:38 PM 65.5°F18.6°C 62.2°F16.8°C 89% Calm Calm -- 30.11 in1019.6 mb 0.00 in0.0 mm 0.00 in0.0 mm 0.00 in0.0 mm
03:43 PM 65.5°F18.6°C 62.2°F16.8°C 89% Calm Calm 1.0 mph1.6 kmh 30.11 in1019.6 mb 0.00 in0.0 mm 0.00 in0.0 mm 0.00 in0.0 mm
03:48 PM 65.5°F18.6°C 62.2°F16.8°C 89% Calm Calm 1.0 mph1.6 kmh 30.11 in1019.6 mb 0.00 in0.0 mm 0.00 in0.0 mm 0.00 in0.0 mm
03:53 PM 65.5°F18.6°C 62.2°F16.8°C 89% Calm Calm 1.0 mph1.6 kmh 30.11 in1019.6 mb 0.00 in0.0 mm 0.00 in0.0 mm 0.00 in0.0 mm
03:58 PM 65.5°F18.6°C 62.2°F16.8°C 89% Calm Calm 1.0 mph1.6 kmh 30.11 in1019.6 mb 0.00 in0.0 mm 0.00 in0.0 mm 0.00 in0.0 mm
04:03 PM 65.5°F18.6°C 62.2°F16.8°C 89% Calm Calm 1.0 mph1.6 kmh 30.11 in1019.6 mb 0.00 in0.0 mm 0.00 in0.0 mm 0.00 in0.0 mm
04:08 PM 65.5°F18.6°C 62.2°F16.8°C 89% Calm Calm 1.0 mph1.6 kmh 30.10 in1019.3 mb 0.00 in0.0 mm 0.00 in0.0 mm 0.00 in0.0 mm
04:13 PM 65.6°F18.7°C 62.3°F16.8°C 89% Calm Calm 1.0 mph1.6 kmh 30.10 in1019.3 mb 0.00 in0.0 mm 0.00 in0.0 mm 0.00 in0.0 mm
04:18 PM 65.6°F18.7°C 62.3°F16.8°C 89% Calm Calm -- 30.10 in1019.3 mb 0.00 in0.0 mm 0.00 in0.0 mm 0.00 in0.0 mm
04:23 PM 65.6°F18.7°C 62.3°F16.8°C 89% 1.0 mph ESE1.6 kmh ESE 1.0 mph1.6 kmh 30.10 in1019.3 mb 0.00 in0.0 mm 0.00 in0.0 mm 0.00 in0.0 mm
04:28 PM 65.7°F18.7°C 62.4°F16.9°C 89% Calm Calm 1.0 mph1.6 kmh 30.10 in1019.3 mb 0.00 in0.0 mm 0.00 in0.0 mm 0.00 in0.0 mm
04:33 PM 65.7°F18.7°C 62.4°F16.9°C 89% 1.0 mph SE1.6 kmh SE 1.0 mph1.6 kmh 30.10 in1019.3 mb 0.00 in0.0 mm 0.00 in0.0 mm 0.00 in0.0 mm
04:38 PM 65.6°F18.7°C 62.3°F16.8°C 89% Calm Calm 1.0 mph1.6 kmh 30.10 in1019.3 mb 0.00 in0.0 mm 0.00 in0.0 mm 0.00 in0.0 mm
04:43 PM 65.5°F18.6°C 62.5°F16.9°C 90% Calm Calm 1.0 mph1.6 kmh 30.10 in1019.3 mb 0.00 in0.0 mm 0.00 in0.0 mm 0.00 in0.0 mm
04:48 PM 65.5°F18.6°C 62.5°F16.9°C 90% Calm Calm 1.0 mph1.6 kmh 30.10 in1019.3 mb 0.00 in0.0 mm 0.00 in0.0 mm 0.00 in0.0 mm
04:53 PM 65.5°F18.6°C 62.5°F16.9°C 90% Calm Calm -- 30.10 in1019.3 mb 0.00 in0.0 mm 0.00 in0.0 mm 0.00 in0.0 mm
04:58 PM 65.5°F18.6°C 62.5°F16.9°C 90% Calm Calm -- 30.10 in1019.3 mb 0.00 in0.0 mm 0.00 in0.0 mm 0.00 in0.0 mm
05:03 PM 65.4°F18.6°C 62.4°F16.9°C 90% Calm Calm -- 30.10 in1019.3 mb 0.00 in0.0 mm 0.00 in0.0 mm 0.00 in0.0 mm
05:08 PM 65.3°F18.5°C 62.3°F16.8°C 90% Calm Calm -- 30.10 in1019.3 mb 0.00 in0.0 mm 0.00 in0.0 mm 0.00 in0.0 mm
05:13 PM 65.2°F18.4°C 62.2°F16.8°C 90% Calm Calm -- 30.10 in1019.3 mb 0.00 in0.0 mm 0.00 in0.0 mm 0.00 in0.0 mm
05:18 PM 65.1°F18.4°C 62.4°F16.9°C 91% Calm Calm -- 30.09 in1019.0 mb 0.00 in0.0 mm 0.00 in0.0 mm 0.00 in0.0 mm
05:23 PM 64.9°F18.3°C 62.2°F16.8°C 91% 1.0 mph SSE1.6 kmh SSE 1.0 mph1.6 kmh 30.09 in1019.0 mb 0.00 in0.0 mm 0.00 in0.0 mm 0.00 in0.0 mm
05:28 PM 64.8°F18.2°C 62.1°F16.7°C 91% Calm Calm 1.0 mph1.6 kmh 30.10 in1019.3 mb 0.00 in0.0 mm 0.00 in0.0 mm 0.00 in0.0 mm
05:33 PM 64.8°F18.2°C 62.1°F16.7°C 91% Calm Calm 1.0 mph1.6 kmh 30.10 in1019.3 mb 0.00 in0.0 mm 0.00 in0.0 mm 0.00 in0.0 mm
05:38 PM 64.6°F18.1°C 62.2°F16.8°C 92% Calm Calm 1.0 mph1.6 kmh 30.09 in1019.0 mb 0.00 in0.0 mm 0.00 in0.0 mm 0.00 in0.0 mm
05:43 PM 64.5°F18.1°C 62.1°F16.7°C 92% 1.0 mph SE1.6 kmh SE 1.0 mph1.6 kmh 30.09 in1019.0 mb 0.00 in0.0 mm 0.00 in0.0 mm 0.00 in0.0 mm
05:48 PM 64.4°F18.0°C 62.0°F16.7°C 92% 1.0 mph SE1.6 kmh SE 1.0 mph1.6 kmh 30.09 in1019.0 mb 0.00 in0.0 mm 0.00 in0.0 mm 0.00 in0.0 mm
05:53 PM 64.4°F18.0°C 62.0°F16.7°C 92% Calm Calm 1.0 mph1.6 kmh 30.09 in1019.0 mb 0.00 in0.0 mm 0.00 in0.0 mm 0.00 in0.0 mm
05:58 PM 64.3°F17.9°C 61.9°F16.6°C 92% Calm Calm 1.0 mph1.6 kmh 30.09 in1019.0 mb 0.00 in0.0 mm 0.00 in0.0 mm 0.00 in0.0 mm
06:03 PM 64.3°F17.9°C 62.2°F16.8°C 93% Calm Calm 1.0 mph1.6 kmh 30.09 in1019.0 mb 0.00 in0.0 mm 0.00 in0.0 mm 0.00 in0.0 mm
06:08 PM 64.2°F17.9°C 62.1°F16.7°C 93% 1.4 mph SE2.3 kmh SE 2.0 mph3.2 kmh 30.09 in1019.0 mb 0.00 in0.0 mm 0.00 in0.0 mm 0.00 in0.0 mm
06:13 PM 64.1°F17.8°C 62.0°F16.7°C 93% 1.8 mph SE2.9 kmh SE 3.0 mph4.8 kmh 30.08 in1018.6 mb 0.00 in0.0 mm 0.00 in0.0 mm 0.00 in0.0 mm
06:18 PM 64.0°F17.8°C 61.9°F16.6°C 93% Calm Calm 3.0 mph4.8 kmh 30.08 in1018.6 mb 0.00 in0.0 mm 0.00 in0.0 mm 0.00 in0.0 mm
06:23 PM 63.9°F17.7°C 62.1°F16.7°C 94% 1.0 mph SSE1.6 kmh SSE 3.0 mph4.8 kmh 30.08 in1018.6 mb 0.00 in0.0 mm 0.00 in0.0 mm 0.00 in0.0 mm
06:28 PM 63.8°F17.7°C 62.0°F16.7°C 94% 1.0 mph SE1.6 kmh SE 3.0 mph4.8 kmh 30.08 in1018.6 mb 0.00 in0.0 mm 0.00 in0.0 mm 0.00 in0.0 mm
06:33 PM 63.7°F17.6°C 61.9°F16.6°C 94% Calm Calm 1.0 mph1.6 kmh 30.08 in1018.6 mb 0.00 in0.0 mm 0.00 in0.0 mm 0.00 in0.0 mm
06:38 PM 63.7°F17.6°C 61.9°F16.6°C 94% 1.0 mph SW1.6 kmh SW 1.0 mph1.6 kmh 30.08 in1018.6 mb 0.00 in0.0 mm 0.00 in0.0 mm 0.00 in0.0 mm
06:43 PM 63.6°F17.6°C 61.8°F16.6°C 94% Calm Calm 2.0 mph3.2 kmh 30.08 in1018.6 mb 0.00 in0.0 mm 0.00 in0.0 mm 0.00 in0.0 mm
06:48 PM 63.5°F17.5°C 61.7°F16.5°C 94% 1.0 mph SSW1.6 kmh SSW 2.0 mph3.2 kmh 30.08 in1018.6 mb 0.00 in0.0 mm 0.00 in0.0 mm 0.00 in0.0 mm
06:53 PM 63.5°F17.5°C 62.0°F16.7°C 95% 2.3 mph WSW3.7 kmh WSW 4.0 mph6.4 kmh 30.08 in1018.6 mb 0.00 in0.0 mm 0.00 in0.0 mm 0.00 in0.0 mm
06:58 PM 63.4°F17.4°C 61.9°F16.6°C 95% Calm Calm 4.0 mph6.4 kmh 30.08 in1018.6 mb 0.00 in0.0 mm 0.00 in0.0 mm 0.00 in0.0 mm
07:03 PM 63.4°F17.4°C 61.9°F16.6°C 95% Calm Calm 4.0 mph6.4 kmh 30.08 in1018.6 mb 0.00 in0.0 mm 0.00 in0.0 mm 0.00 in0.0 mm
07:08 PM 63.4°F17.4°C 61.9°F16.6°C 95% 1.2 mph SW1.9 kmh SW 4.0 mph6.4 kmh 30.08 in1018.6 mb 0.00 in0.0 mm 0.00 in0.0 mm 0.00 in0.0 mm
07:13 PM 63.4°F17.4°C 61.9°F16.6°C 95% 1.1 mph SW1.8 kmh SW 3.0 mph4.8 kmh 30.08 in1018.6 mb 0.00 in0.0 mm 0.00 in0.0 mm 0.00 in0.0 mm
07:18 PM 63.4°F17.4°C 61.9°F16.6°C 95% 1.3 mph SW2.1 kmh SW 3.0 mph4.8 kmh 30.08 in1018.6 mb 0.00 in0.0 mm 0.00 in0.0 mm 0.00 in0.0 mm
07:23 PM 63.3°F17.4°C 61.8°F16.6°C 95% Calm Calm 3.0 mph4.8 kmh 30.08 in1018.6 mb 0.00 in0.0 mm 0.00 in0.0 mm 0.00 in0.0 mm
07:28 PM 63.3°F17.4°C 61.8°F16.6°C 95% Calm Calm 2.0 mph3.2 kmh 30.07 in1018.3 mb 0.00 in0.0 mm 0.00 in0.0 mm 0.00 in0.0 mm
07:33 PM 63.3°F17.4°C 61.8°F16.6°C 95% 1.5 mph SW2.4 kmh SW 3.0 mph4.8 kmh 30.08 in1018.6 mb 0.00 in0.0 mm 0.00 in0.0 mm 0.00 in0.0 mm
07:38 PM 63.3°F17.4°C 61.8°F16.6°C 95% 1.5 mph SW2.4 kmh SW 3.0 mph4.8 kmh 30.08 in1018.6 mb 0.00 in0.0 mm 0.00 in0.0 mm 0.00 in0.0 mm
07:43 PM 63.2°F17.3°C 62.0°F16.7°C 96% 1.5 mph SW2.4 kmh SW 3.0 mph4.8 kmh 30.08 in1018.6 mb 0.00 in0.0 mm 0.00 in0.0 mm 0.00 in0.0 mm
07:47 PM 63.2°F17.3°C 62.0°F16.7°C 96% 1.8 mph SW2.9 kmh SW 4.0 mph6.4 kmh 30.08 in1018.6 mb 0.00 in0.0 mm 0.00 in0.0 mm 0.00 in0.0 mm
07:52 PM 63.2°F17.3°C 62.0°F16.7°C 96% 1.2 mph SW1.9 kmh SW 4.0 mph6.4 kmh 30.08 in1018.6 mb 0.00 in0.0 mm 0.00 in0.0 mm 0.00 in0.0 mm
07:57 PM 63.2°F17.3°C 62.0°F16.7°C 96% 1.0 mph SW1.6 kmh SW 5.0 mph8.0 kmh 30.08 in1018.6 mb 0.00 in0.0 mm 0.00 in0.0 mm 0.00 in0.0 mm
08:02 PM 63.2°F17.3°C 62.0°F16.7°C 96% 1.1 mph WSW1.8 kmh WSW 5.0 mph8.0 kmh 30.09 in1019.0 mb 0.00 in0.0 mm 0.00 in0.0 mm 0.00 in0.0 mm
08:07 PM 63.2°F17.3°C 62.0°F16.7°C 96% 1.1 mph WSW1.8 kmh WSW 5.0 mph8.0 kmh 30.08 in1018.6 mb 0.00 in0.0 mm 0.00 in0.0 mm 0.00 in0.0 mm
08:12 PM 63.2°F17.3°C 62.0°F16.7°C 96% 1.3 mph SW2.1 kmh SW 5.0 mph8.0 kmh 30.08 in1018.6 mb 0.00 in0.0 mm 0.00 in0.0 mm 0.00 in0.0 mm
08:17 PM 63.2°F17.3°C 62.0°F16.7°C 96% 1.2 mph SW1.9 kmh SW 4.0 mph6.4 kmh 30.08 in1018.6 mb 0.00 in0.0 mm 0.00 in0.0 mm 0.00 in0.0 mm
08:22 PM 63.2°F17.3°C 62.0°F16.7°C 96% Calm Calm 4.0 mph6.4 kmh 30.08 in1018.6 mb 0.00 in0.0 mm 0.00 in0.0 mm 0.00 in0.0 mm
08:27 PM 63.2°F17.3°C 62.0°F16.7°C 96% 1.4 mph SW2.3 kmh SW 3.0 mph4.8 kmh 30.09 in1019.0 mb 0.00 in0.0 mm 0.00 in0.0 mm 0.00 in0.0 mm
08:32 PM 63.2°F17.3°C 62.0°F16.7°C 96% 1.1 mph SW1.8 kmh SW 3.0 mph4.8 kmh 30.09 in1019.0 mb 0.00 in0.0 mm 0.00 in0.0 mm 0.00 in0.0 mm
08:37 PM 63.2°F17.3°C 62.0°F16.7°C 96% 1.0 mph SW1.6 kmh SW 3.0 mph4.8 kmh 30.09 in1019.0 mb 0.01 in0.3 mm 0.12 in3.0 mm 0.01 in0.3 mm
08:42 PM 63.2°F17.3°C 62.0°F16.7°C 96% 1.2 mph SW1.9 kmh SW 3.0 mph4.8 kmh 30.09 in1019.0 mb 0.01 in0.3 mm 0.00 in0.0 mm 0.02 in0.5 mm
08:47 PM 63.2°F17.3°C 62.0°F16.7°C 96% 1.0 mph SW1.6 kmh SW 3.0 mph4.8 kmh 30.08 in1018.6 mb 0.02 in0.5 mm 0.12 in3.0 mm 0.02 in0.5 mm
08:52 PM 63.2°F17.3°C 62.3°F16.8°C 97% 1.0 mph SW1.6 kmh SW 3.0 mph4.8 kmh 30.08 in1018.6 mb 0.02 in0.5 mm 0.00 in0.0 mm 0.02 in0.5 mm
08:57 PM 63.1°F17.3°C 62.2°F16.8°C 97% Calm Calm 3.0 mph4.8 kmh 30.08 in1018.6 mb 0.02 in0.5 mm 0.00 in0.0 mm 0.02 in0.5 mm
09:02 PM 63.1°F17.3°C 62.2°F16.8°C 97% 1.0 mph WSW1.6 kmh WSW 3.0 mph4.8 kmh 30.08 in1018.6 mb 0.02 in0.5 mm 0.00 in0.0 mm 0.02 in0.5 mm
09:07 PM 63.0°F17.2°C 62.1°F16.7°C 97% 1.0 mph WSW1.6 kmh WSW 1.0 mph1.6 kmh 30.08 in1018.6 mb 0.02 in0.5 mm 0.00 in0.0 mm 0.02 in0.5 mm
09:12 PM 63.0°F17.2°C 62.1°F16.7°C 97% Calm Calm 1.0 mph1.6 kmh 30.08 in1018.6 mb 0.02 in0.5 mm 0.00 in0.0 mm 0.02 in0.5 mm
09:17 PM 63.0°F17.2°C 62.1°F16.7°C 97% Calm Calm 1.0 mph1.6 kmh 30.08 in1018.6 mb 0.02 in0.5 mm 0.00 in0.0 mm 0.02 in0.5 mm
09:22 PM 63.0°F17.2°C 62.1°F16.7°C 97% Calm Calm 1.0 mph1.6 kmh 30.07 in1018.3 mb 0.02 in0.5 mm 0.00 in0.0 mm 0.02 in0.5 mm
09:27 PM 63.0°F17.2°C 62.1°F16.7°C 97% Calm Calm 1.0 mph1.6 kmh 30.07 in1018.3 mb 0.02 in0.5 mm 0.00 in0.0 mm 0.02 in0.5 mm
09:32 PM 63.1°F17.3°C 62.2°F16.8°C 97% 1.0 mph NW1.6 kmh NW 3.0 mph4.8 kmh 30.08 in1018.6 mb 0.02 in0.5 mm 0.00 in0.0 mm 0.02 in0.5 mm
09:37 PM 63.1°F17.3°C 62.2°F16.8°C 97% 1.2 mph NW1.9 kmh NW 3.0 mph4.8 kmh 30.08 in1018.6 mb 0.01 in0.3 mm 0.00 in0.0 mm 0.02 in0.5 mm
09:42 PM 63.1°F17.3°C 62.2°F16.8°C 97% 3.1 mph NW5.0 kmh NW 9.0 mph14.5 kmh 30.10 in1019.3 mb 0.01 in0.3 mm 0.00 in0.0 mm 0.03 in0.8 mm
09:47 PM 61.8°F16.6°C 60.4°F15.8°C 95% 4.0 mph NNW6.4 kmh NNW 16.0 mph25.7 kmh 30.10 in1019.3 mb 0.08 in2.0 mm 0.84 in21.3 mm 0.10 in2.5 mm
09:52 PM 60.7°F15.9°C 59.3°F15.2°C 95% 6.9 mph N11.1 kmh N 18.0 mph29.0 kmh 30.10 in1019.3 mb 0.11 in2.8 mm 0.36 in9.1 mm 0.13 in3.3 mm
09:57 PM 59.8°F15.4°C 58.4°F14.7°C 95% 6.3 mph N10.1 kmh N 21.0 mph33.8 kmh 30.11 in1019.6 mb 0.12 in3.0 mm 0.12 in3.0 mm 0.14 in3.6 mm
10:02 PM 59.4°F15.2°C 58.0°F14.4°C 95% 3.5 mph N5.6 kmh N 21.0 mph33.8 kmh 30.10 in1019.3 mb 0.12 in3.0 mm 0.00 in0.0 mm 0.14 in3.6 mm
10:07 PM 59.2°F15.1°C 58.0°F14.4°C 96% 4.6 mph N7.4 kmh N 21.0 mph33.8 kmh 30.10 in1019.3 mb 0.13 in3.3 mm 0.12 in3.0 mm 0.15 in3.8 mm
10:12 PM 59.0°F15.0°C 57.8°F14.3°C 96% 3.5 mph N5.6 kmh N 21.0 mph33.8 kmh 30.11 in1019.6 mb 0.13 in3.3 mm 0.00 in0.0 mm 0.15 in3.8 mm
10:17 PM 58.9°F14.9°C 57.7°F14.3°C 96% 2.8 mph NNE4.5 kmh NNE 11.0 mph17.7 kmh 30.11 in1019.6 mb 0.14 in3.6 mm 0.12 in3.0 mm 0.16 in4.1 mm
10:22 PM 58.8°F14.9°C 57.6°F14.2°C 96% 3.1 mph 5.0 kmh 10.0 mph16.1 kmh 30.11 in1019.6 mb 0.14 in3.6 mm 0.00 in0.0 mm 0.16 in4.1 mm
10:27 PM 58.8°F14.9°C 57.6°F14.2°C 96% 1.6 mph N2.6 kmh N 10.0 mph16.1 kmh 30.12 in1020.0 mb 0.15 in3.8 mm 0.12 in3.0 mm 0.17 in4.3 mm
10:32 PM 58.7°F14.8°C 57.5°F14.2°C 96% 3.0 mph NNW4.8 kmh NNW 8.0 mph12.9 kmh 30.12 in1020.0 mb 0.15 in3.8 mm 0.00 in0.0 mm 0.17 in4.3 mm
10:37 PM 58.7°F14.8°C 57.8°F14.3°C 97% 1.5 mph NE2.4 kmh NE 8.0 mph12.9 kmh 30.12 in1020.0 mb 0.16 in4.1 mm 0.12 in3.0 mm 0.18 in4.6 mm
10:42 PM 58.6°F14.8°C 57.7°F14.3°C 97% 1.4 mph N2.3 kmh N 8.0 mph12.9 kmh 30.12 in1020.0 mb 0.16 in4.1 mm 0.00 in0.0 mm 0.20 in5.1 mm
10:47 PM 58.6°F14.8°C 57.7°F14.3°C 97% 2.1 mph NNW3.4 kmh NNW 8.0 mph12.9 kmh 30.12 in1020.0 mb 0.11 in2.8 mm 0.00 in0.0 mm 0.21 in5.3 mm
10:52 PM 58.6°F14.8°C 57.7°F14.3°C 97% 1.5 mph N2.4 kmh N 6.0 mph9.7 kmh 30.12 in1020.0 mb 0.11 in2.8 mm 0.00 in0.0 mm 0.24 in6.1 mm
10:57 PM 58.5°F14.7°C 57.6°F14.2°C 97% 1.0 mph NNE1.6 kmh NNE 6.0 mph9.7 kmh 30.11 in1019.6 mb 0.12 in3.0 mm 0.12 in3.0 mm 0.26 in6.6 mm
11:02 PM 58.5°F14.7°C 57.6°F14.2°C 97% 1.6 mph N2.6 kmh N 6.0 mph9.7 kmh 30.11 in1019.6 mb 0.13 in3.3 mm 0.01 in0.3 mm 0.27 in6.9 mm
11:07 PM 58.4°F14.7°C 57.5°F14.2°C 97% 1.8 mph NNW2.9 kmh NNW 6.0 mph9.7 kmh 30.11 in1019.6 mb 0.12 in3.0 mm 0.00 in0.0 mm 0.27 in6.9 mm
11:12 PM 58.4°F14.7°C 57.5°F14.2°C 97% 1.1 mph N1.8 kmh N 6.0 mph9.7 kmh 30.11 in1019.6 mb 0.13 in3.3 mm 0.12 in3.0 mm 0.28 in7.1 mm
11:17 PM 58.4°F14.7°C 57.5°F14.2°C 97% 2.5 mph N4.0 kmh N 6.0 mph9.7 kmh 30.12 in1020.0 mb 0.13 in3.3 mm 0.00 in0.0 mm 0.30 in7.6 mm
11:22 PM 58.4°F14.7°C 57.5°F14.2°C 97% 1.7 mph NW2.7 kmh NW 6.0 mph9.7 kmh 30.11 in1019.6 mb 0.14 in3.6 mm 0.12 in3.0 mm 0.30 in7.6 mm
11:27 PM 58.4°F14.7°C 57.5°F14.2°C 97% 1.7 mph NNW2.7 kmh NNW 6.0 mph9.7 kmh 30.12 in1020.0 mb 0.14 in3.6 mm 0.00 in0.0 mm 0.31 in7.9 mm
11:32 PM 58.3°F14.6°C 57.4°F14.1°C 97% 1.5 mph N2.4 kmh N 6.0 mph9.7 kmh 30.11 in1019.6 mb 0.15 in3.8 mm 0.12 in3.0 mm 0.32 in8.1 mm
11:37 PM 58.3°F14.6°C 57.5°F14.2°C 97% 1.6 mph N2.6 kmh N 6.0 mph9.7 kmh 30.10 in1019.3 mb 0.14 in3.6 mm 0.00 in0.0 mm 0.32 in8.1 mm
11:42 PM 58.3°F14.6°C 57.5°F14.2°C 97% 1.0 mph NNW1.6 kmh NNW 6.0 mph9.7 kmh 30.11 in1019.6 mb 0.13 in3.3 mm 0.00 in0.0 mm 0.33 in8.4 mm
11:47 PM 58.3°F14.6°C 57.4°F14.1°C 97% 1.3 mph NE2.1 kmh NE 4.0 mph6.4 kmh 30.10 in1019.3 mb 0.12 in3.0 mm 0.00 in0.0 mm 0.33 in8.4 mm
11:52 PM 58.3°F14.6°C 57.4°F14.1°C 97% 1.0 mph NW1.6 kmh NW 5.0 mph8.0 kmh 30.11 in1019.6 mb 0.09 in2.3 mm 0.00 in0.0 mm 0.33 in8.4 mm
11:57 PM 58.3°F14.6°C 57.4°F14.1°C 97% 1.6 mph NNW2.6 kmh NNW 5.0 mph8.0 kmh 30.11 in1019.6 mb 0.07 in1.8 mm 0.00 in0.0 mm 0.33 in8.4 mm